createdAt,value
2022-09-22T00:01:14.370Z,104590.28
2022-09-22T00:03:42.157Z,104606.81
2022-09-22T00:06:09.847Z,104615.53
2022-09-22T00:08:37.749Z,104635.91
2022-09-22T00:11:05.705Z,104673.66
2022-09-22T00:13:33.024Z,104685.94
2022-09-22T00:16:01.040Z,104728.94
2022-09-22T00:18:28.294Z,104761.56
2022-09-22T00:20:54.867Z,104796.00
2022-09-22T00:23:25.033Z,104841.94
2022-09-22T00:25:51.495Z,104875.25
2022-09-22T00:28:20.185Z,104922.81
2022-09-22T00:30:47.366Z,104939.25
2022-09-22T00:33:13.683Z,104970.03
2022-09-22T00:35:39.965Z,104993.06
2022-09-22T00:38:06.360Z,105066.00
2022-09-22T00:40:33.452Z,105103.03
2022-09-22T00:43:13.218Z,105110.72
2022-09-22T00:45:39.585Z,105117.34
2022-09-22T00:48:05.886Z,105143.81
2022-09-22T00:50:32.279Z,105160.72
2022-09-22T00:53:01.955Z,105156.41
2022-09-22T00:55:36.625Z,105174.88
2022-09-22T00:58:05.830Z,105172.91
2022-09-22T01:00:32.189Z,105161.06
2022-09-22T01:03:00.683Z,105167.41
2022-09-22T01:05:28.856Z,105182.09
2022-09-22T01:07:55.200Z,105190.06
2022-09-22T01:10:23.911Z,105224.47
2022-09-22T01:13:08.491Z,105247.34
2022-09-22T01:15:47.013Z,105264.03
2022-09-22T01:18:21.296Z,105277.88
2022-09-22T01:20:50.408Z,105300.78
2022-09-22T01:23:35.633Z,105304.25
2022-09-22T01:26:11.186Z,105327.00
2022-09-22T01:28:37.467Z,105333.94
2022-09-22T01:31:03.809Z,105350.81
2022-09-22T01:33:39.594Z,105361.50
2022-09-22T01:36:13.310Z,105360.69
2022-09-22T01:38:58.460Z,105387.00
2022-09-22T01:41:39.985Z,105393.94
2022-09-22T01:44:09.804Z,105376.34
2022-09-22T01:46:45.117Z,105350.78
2022-09-22T01:49:14.504Z,105415.88
2022-09-22T01:51:43.837Z,105397.94
2022-09-22T01:54:12.836Z,105392.59
2022-09-22T01:56:41.871Z,105395.25
2022-09-22T01:59:10.626Z,105408.00
2022-09-22T02:01:41.059Z,105360.53
2022-09-22T02:04:11.649Z,105366.78
2022-09-22T02:06:37.921Z,105370.28
2022-09-22T02:09:09.138Z,105370.16
2022-09-22T02:11:35.518Z,105370.81
2022-09-22T02:14:02.684Z,105376.84
2022-09-22T02:16:29.201Z,105365.78
2022-09-22T02:19:16.802Z,105371.69
2022-09-22T02:21:44.590Z,105382.63
2022-09-22T02:24:26.963Z,105401.38
2022-09-22T02:26:53.783Z,105404.94
2022-09-22T02:29:20.141Z,105416.34
2022-09-22T02:31:46.734Z,105406.53
2022-09-22T02:34:13.134Z,105419.59
2022-09-22T02:36:42.501Z,105425.72
2022-09-22T02:39:17.760Z,105415.94
2022-09-22T02:42:02.805Z,105412.38
2022-09-22T02:44:38.914Z,105437.94
2022-09-22T02:47:12.129Z,105441.34
2022-09-22T02:49:39.061Z,105441.53
2022-09-22T02:52:10.667Z,105452.88
2022-09-22T02:54:37.042Z,105453.66
2022-09-22T02:57:03.582Z,105459.63
2022-09-22T02:59:29.880Z,105453.66
2022-09-22T03:01:56.590Z,105460.44
2022-09-22T03:04:22.979Z,105459.41
2022-09-22T03:06:49.340Z,105458.53
2022-09-22T03:09:17.560Z,105460.31
2022-09-22T03:11:43.899Z,105449.66
2022-09-22T03:14:10.328Z,105449.47
2022-09-22T03:16:36.666Z,105431.44
2022-09-22T03:19:03.042Z,105438.41
2022-09-22T03:21:29.366Z,105427.19
2022-09-22T03:23:55.741Z,105413.16
2022-09-22T03:26:22.053Z,105414.06
2022-09-22T03:28:48.689Z,105405.03
2022-09-22T03:31:15.030Z,105402.91
2022-09-22T03:33:41.669Z,105392.25
2022-09-22T03:36:08.101Z,105399.34
2022-09-22T03:38:34.904Z,105409.97
2022-09-22T03:41:02.712Z,105414.34
2022-09-22T03:43:29.022Z,105403.63
2022-09-22T03:45:56.113Z,105403.41
2022-09-22T03:48:22.596Z,105390.25
2022-09-22T03:50:48.893Z,105392.88
2022-09-22T03:53:15.532Z,105404.47
2022-09-22T03:55:41.850Z,105401.88
2022-09-22T03:58:08.153Z,105404.59
2022-09-22T04:00:34.460Z,105384.31
2022-09-22T04:03:00.785Z,105402.69
2022-09-22T04:05:27.387Z,105406.28
2022-09-22T04:07:53.770Z,105394.88
2022-09-22T04:10:21.269Z,105395.72
2022-09-22T04:12:47.950Z,105389.38
2022-09-22T04:15:14.256Z,105385.84
2022-09-22T04:17:40.753Z,105401.22
2022-09-22T04:20:07.773Z,105392.25
2022-09-22T04:22:34.259Z,105401.94
2022-09-22T04:25:00.569Z,105409.13
2022-09-22T04:27:26.873Z,105397.97
2022-09-22T04:29:53.225Z,105383.47
2022-09-22T04:32:19.814Z,105389.97
2022-09-22T04:34:46.122Z,105398.88
2022-09-22T04:37:12.500Z,105388.44
2022-09-22T04:39:38.903Z,105407.00
2022-09-22T04:42:05.377Z,105403.13
2022-09-22T04:44:34.917Z,105391.69
2022-09-22T04:47:01.645Z,105395.41
2022-09-22T04:49:27.968Z,105387.50
2022-09-22T04:51:54.328Z,105410.56
2022-09-22T04:54:20.710Z,105419.31
2022-09-22T04:56:47.178Z,105416.53
2022-09-22T04:59:13.498Z,105426.97
2022-09-22T05:01:39.942Z,105437.56
2022-09-22T05:04:06.303Z,105445.50
2022-09-22T05:06:32.683Z,105435.81
2022-09-22T05:08:59.045Z,105445.50
2022-09-22T05:11:25.428Z,105448.97
2022-09-22T05:13:51.780Z,105454.25
2022-09-22T05:16:18.443Z,105463.34
2022-09-22T05:18:45.051Z,105471.22
2022-09-22T05:21:11.374Z,105475.78
2022-09-22T05:23:39.140Z,105472.31
2022-09-22T05:26:05.456Z,105485.56
2022-09-22T05:28:31.762Z,105493.47
2022-09-22T05:30:58.258Z,105493.59
2022-09-22T05:33:24.554Z,105491.88
2022-09-22T05:35:50.894Z,105499.69
2022-09-22T05:38:17.213Z,105500.63
2022-09-22T05:40:45.102Z,105513.31
2022-09-22T05:43:11.466Z,105507.91
2022-09-22T05:45:37.850Z,105510.66
2022-09-22T05:48:04.201Z,105519.94
2022-09-22T05:50:30.637Z,105518.38
2022-09-22T05:53:07.449Z,105543.38
2022-09-22T05:55:34.324Z,105554.25
2022-09-22T05:58:00.660Z,105573.75
2022-09-22T06:00:27.355Z,105646.16
2022-09-22T06:02:53.804Z,105701.06
2022-09-22T06:05:20.204Z,105719.03
2022-09-22T06:07:46.848Z,105729.78
2022-09-22T06:10:13.220Z,105796.03
2022-09-22T06:12:39.761Z,105815.94
2022-09-22T06:15:06.603Z,105824.97
2022-09-22T06:17:32.922Z,105841.19
2022-09-22T06:20:00.750Z,105868.19
2022-09-22T06:22:27.284Z,105892.63
2022-09-22T06:24:53.737Z,105907.44
2022-09-22T06:27:20.070Z,105921.63
2022-09-22T06:29:46.384Z,105968.06
2022-09-22T06:32:12.707Z,105966.78
2022-09-22T06:34:39.065Z,105990.31
2022-09-22T06:37:08.405Z,105995.00
2022-09-22T06:39:37.571Z,105999.69
2022-09-22T06:42:05.003Z,106014.56
2022-09-22T06:44:31.886Z,106024.91
2022-09-22T06:46:58.342Z,106045.53
2022-09-22T06:49:25.644Z,106065.22
2022-09-22T06:51:52.020Z,106074.75
2022-09-22T06:54:18.514Z,106086.19
2022-09-22T06:56:45.166Z,106129.16
2022-09-22T06:59:14.381Z,106124.19
2022-09-22T07:01:41.576Z,106211.16
2022-09-22T07:04:08.277Z,106230.22
2022-09-22T07:06:35.157Z,106242.31
2022-09-22T07:09:01.458Z,106263.91
2022-09-22T07:11:27.781Z,106273.09
2022-09-22T07:13:54.516Z,106303.69
2022-09-22T07:16:24.322Z,106350.00
2022-09-22T07:18:51.938Z,106375.34
2022-09-22T07:21:22.744Z,106382.41
2022-09-22T07:23:52.561Z,106369.53
2022-09-22T07:26:20.266Z,106384.59
2022-09-22T07:28:50.276Z,106380.34
2022-09-22T07:31:17.191Z,106383.41
2022-09-22T07:33:44.331Z,106381.25
2022-09-22T07:36:18.584Z,106371.59
2022-09-22T07:38:46.664Z,106384.41
2022-09-22T07:41:14.141Z,106363.66
2022-09-22T07:43:41.258Z,106336.94
2022-09-22T07:46:08.298Z,106324.88
2022-09-22T07:48:45.616Z,106270.22
2022-09-22T07:51:20.456Z,106176.16
2022-09-22T07:53:51.805Z,106061.28
2022-09-22T07:56:21.057Z,105946.03
2022-09-22T07:58:49.864Z,105735.13
2022-09-22T08:01:16.894Z,105508.84
2022-09-22T08:03:44.086Z,105358.09
2022-09-22T08:06:11.110Z,105248.19
2022-09-22T08:08:42.192Z,105111.50
2022-09-22T08:11:14.947Z,104992.56
2022-09-22T08:13:42.977Z,104894.97
2022-09-22T08:16:10.379Z,104850.47
2022-09-22T08:18:36.983Z,104787.34
2022-09-22T08:21:04.313Z,104718.13
2022-09-22T08:23:31.375Z,104684.97
2022-09-22T08:26:03.203Z,104640.28
2022-09-22T08:28:29.582Z,104589.66
2022-09-22T08:30:55.898Z,104565.66
2022-09-22T08:33:22.222Z,104515.94
2022-09-22T08:35:54.878Z,104485.66
2022-09-22T08:38:23.141Z,104478.06
2022-09-22T08:40:58.402Z,104450.72
2022-09-22T08:43:24.926Z,104440.50
2022-09-22T08:45:52.070Z,104413.28
2022-09-22T08:48:39.813Z,104375.88
2022-09-22T08:51:29.134Z,104322.13
2022-09-22T08:54:00.937Z,104271.50
2022-09-22T08:56:30.472Z,104215.41
2022-09-22T08:59:15.505Z,104152.28
2022-09-22T09:02:05.662Z,104081.34
2022-09-22T09:04:51.773Z,104009.31
2022-09-22T09:07:21.201Z,103916.28
2022-09-22T09:10:07.267Z,103813.22
2022-09-22T09:12:33.548Z,103696.97
2022-09-22T09:15:15.445Z,103613.91
2022-09-22T09:17:42.462Z,103526.88
2022-09-22T09:20:16.621Z,103445.06
2022-09-22T09:22:55.598Z,103345.94
2022-09-22T09:25:37.592Z,103245.56
2022-09-22T09:28:06.011Z,103149.53
2022-09-22T09:30:36.722Z,103048.41
2022-09-22T09:33:11.390Z,103006.66
2022-09-22T09:35:45.710Z,102960.41
2022-09-22T09:38:14.691Z,102934.53
2022-09-22T09:40:41.148Z,102910.78
2022-09-22T09:43:07.976Z,102892.59
2022-09-22T09:45:44.750Z,102863.66
2022-09-22T09:48:34.418Z,102847.56
2022-09-22T09:51:02.204Z,102828.28
2022-09-22T09:53:34.370Z,102809.22
2022-09-22T09:56:00.902Z,102785.53
2022-09-22T09:58:45.684Z,102777.75
2022-09-22T10:01:13.246Z,102747.53
2022-09-22T10:03:43.876Z,102745.63
2022-09-22T10:06:11.055Z,102734.97
2022-09-22T10:08:49.323Z,102725.50
2022-09-22T10:11:15.774Z,102706.75
2022-09-22T10:13:43.203Z,102698.44
2022-09-22T10:16:21.494Z,102675.91
2022-09-22T10:18:48.892Z,102664.69
2022-09-22T10:21:15.649Z,102626.91
2022-09-22T10:23:46.692Z,102600.75
2022-09-22T10:26:26.542Z,102577.97
2022-09-22T10:29:11.857Z,102546.63
2022-09-22T10:31:38.839Z,102510.22
2022-09-22T10:34:06.514Z,102476.78
2022-09-22T10:36:33.259Z,102449.41
2022-09-22T10:39:00.080Z,102424.22
2022-09-22T10:41:31.643Z,102407.56
2022-09-22T10:44:06.345Z,102457.19
2022-09-22T10:46:55.363Z,102494.78
2022-09-22T10:49:24.746Z,102444.72
2022-09-22T10:51:57.274Z,102487.09
2022-09-22T10:54:26.622Z,102454.16
2022-09-22T10:56:59.283Z,102449.53
2022-09-22T10:59:32.621Z,102464.84
2022-09-22T11:02:14.203Z,102452.75
2022-09-22T11:04:47.419Z,102422.91
2022-09-22T11:07:32.219Z,102389.81
2022-09-22T11:10:24.232Z,102333.25
2022-09-22T11:13:01.698Z,102262.66
2022-09-22T11:15:28.119Z,102130.41
2022-09-22T11:18:05.563Z,102102.34
2022-09-22T11:20:32.299Z,102102.19
2022-09-22T11:22:58.609Z,102062.13
2022-09-22T11:25:50.662Z,102105.25
2022-09-22T11:28:33.351Z,102161.66
2022-09-22T11:31:00.741Z,102126.88
2022-09-22T11:33:45.942Z,102072.81
2022-09-22T11:36:18.448Z,101974.25
2022-09-22T11:38:44.756Z,101950.69
2022-09-22T11:41:29.983Z,101896.66
2022-09-22T11:44:08.788Z,101914.44
2022-09-22T11:46:55.182Z,101967.00
2022-09-22T11:49:40.307Z,102136.22
2022-09-22T11:52:21.935Z,102228.59
2022-09-22T11:55:26.810Z,102271.84
2022-09-22T11:57:57.233Z,102274.53
2022-09-22T12:00:23.625Z,102298.78
2022-09-22T12:03:01.809Z,102212.56
2022-09-22T12:05:38.826Z,102044.25
2022-09-22T12:08:07.494Z,101808.75
2022-09-22T12:10:36.225Z,101759.09
2022-09-22T12:13:04.341Z,101664.91
2022-09-22T12:15:41.721Z,101723.50
2022-09-22T12:18:10.829Z,101817.16
2022-09-22T12:20:40.173Z,101763.28
2022-09-22T12:23:25.479Z,101636.78
2022-09-22T12:25:56.815Z,101725.03
2022-09-22T12:28:25.759Z,101950.97
2022-09-22T12:30:54.508Z,102097.31
2022-09-22T12:33:21.956Z,102097.84
2022-09-22T12:35:53.245Z,102035.06
2022-09-22T12:38:20.954Z,101923.72
2022-09-22T12:40:52.357Z,101946.19
2022-09-22T12:43:21.327Z,101713.59
2022-09-22T12:45:49.385Z,101575.31
2022-09-22T12:48:22.169Z,101542.28
2022-09-22T12:50:49.528Z,101473.41
2022-09-22T12:53:22.057Z,101514.03
2022-09-22T12:55:57.902Z,101453.81
2022-09-22T12:58:30.258Z,101435.31
2022-09-22T13:01:16.943Z,101415.81
2022-09-22T13:03:50.498Z,101318.59
2022-09-22T13:06:23.025Z,101471.94
2022-09-22T13:08:52.320Z,101406.31
2022-09-22T13:11:18.775Z,101366.03
2022-09-22T13:13:46.732Z,101341.25
2022-09-22T13:16:16.178Z,101254.47
2022-09-22T13:18:46.118Z,101300.03
2022-09-22T13:21:12.429Z,101387.44
2022-09-22T13:23:50.972Z,101452.16
2022-09-22T13:26:20.186Z,101457.19
2022-09-22T13:28:59.212Z,101332.97
2022-09-22T13:31:26.505Z,101411.50
2022-09-22T13:33:52.926Z,101291.53
2022-09-22T13:36:20.216Z,101294.31
2022-09-22T13:38:50.988Z,101248.81
2022-09-22T13:41:19.358Z,101116.13
2022-09-22T13:43:48.667Z,101243.88
2022-09-22T13:46:21.780Z,101307.22
2022-09-22T13:48:49.456Z,101361.44
2022-09-22T13:51:17.170Z,101364.59
2022-09-22T13:53:49.234Z,101274.53
2022-09-22T13:56:21.575Z,101152.72
2022-09-22T13:58:49.845Z,101104.59
2022-09-22T14:01:16.201Z,101326.44
2022-09-22T14:03:43.554Z,101462.28
2022-09-22T14:06:14.101Z,101368.59
2022-09-22T14:08:41.246Z,101467.84
2022-09-22T14:11:11.914Z,101423.03
2022-09-22T14:13:43.439Z,101331.38
2022-09-22T14:16:28.408Z,101399.63
2022-09-22T14:19:06.768Z,101273.53
2022-09-22T14:21:40.233Z,101269.66
2022-09-22T14:24:06.756Z,101234.69
2022-09-22T14:26:35.664Z,101135.84
2022-09-22T14:29:15.078Z,101075.59
2022-09-22T14:31:45.347Z,101127.94
2022-09-22T14:34:16.016Z,101070.75
2022-09-22T14:36:44.079Z,101261.78
2022-09-22T14:39:16.052Z,101249.66
2022-09-22T14:41:49.869Z,101203.72
2022-09-22T14:44:26.619Z,101087.56
2022-09-22T14:46:55.181Z,101098.28
2022-09-22T14:49:39.436Z,101038.72
2022-09-22T14:52:07.503Z,101084.63
2022-09-22T14:54:35.221Z,101070.31
2022-09-22T14:57:07.321Z,101256.75
2022-09-22T14:59:54.370Z,101262.84
2022-09-22T15:02:33.631Z,101304.34
2022-09-22T15:05:04.627Z,101303.00
2022-09-22T15:07:35.018Z,101279.09
2022-09-22T15:10:18.873Z,101241.19
2022-09-22T15:12:49.417Z,101197.72
2022-09-22T15:15:17.010Z,101179.16
2022-09-22T15:18:03.075Z,101104.22
2022-09-22T15:20:42.711Z,101168.28
2022-09-22T15:23:29.429Z,101237.63
2022-09-22T15:25:55.993Z,101172.81
2022-09-22T15:28:23.755Z,101194.56
2022-09-22T15:30:51.822Z,101195.81
2022-09-22T15:33:18.895Z,101147.53
2022-09-22T15:35:46.965Z,101095.53
2022-09-22T15:38:16.204Z,101160.13
2022-09-22T15:40:42.646Z,101235.44
2022-09-22T15:43:13.317Z,101304.03
2022-09-22T15:45:49.236Z,101350.34
2022-09-22T15:48:21.065Z,101375.56
2022-09-22T15:50:47.450Z,101257.03
2022-09-22T15:53:13.881Z,101358.00
2022-09-22T15:55:40.249Z,101472.69
2022-09-22T15:58:09.680Z,101542.88
2022-09-22T16:00:36.693Z,101582.78
2022-09-22T16:03:05.590Z,101627.06
2022-09-22T16:05:34.037Z,101685.34
2022-09-22T16:08:00.393Z,101667.13
2022-09-22T16:10:26.710Z,101691.81
2022-09-22T16:12:53.034Z,101716.91
2022-09-22T16:15:19.403Z,101708.59
2022-09-22T16:17:45.909Z,101685.06
2022-09-22T16:20:14.109Z,101754.31
2022-09-22T16:22:41.248Z,101724.63
2022-09-22T16:25:09.340Z,101756.00
2022-09-22T16:27:36.186Z,101793.31
2022-09-22T16:30:02.698Z,101842.25
2022-09-22T16:32:29.517Z,101880.56
2022-09-22T16:34:55.868Z,101904.38
2022-09-22T16:37:22.189Z,101933.41
2022-09-22T16:39:49.046Z,101993.19
2022-09-22T16:42:22.890Z,102004.59
2022-09-22T16:44:49.940Z,101948.56
2022-09-22T16:47:24.245Z,101912.81
2022-09-22T16:49:51.726Z,101904.28
2022-09-22T16:52:19.055Z,101973.81
2022-09-22T16:54:46.162Z,102006.59
2022-09-22T16:57:12.528Z,102067.31
2022-09-22T16:59:38.835Z,102113.25
2022-09-22T17:02:05.486Z,102188.31
2022-09-22T17:04:32.399Z,102224.91
2022-09-22T17:06:58.759Z,102231.88
2022-09-22T17:09:25.110Z,102228.88
2022-09-22T17:11:52.558Z,102218.16
2022-09-22T17:14:23.033Z,102206.91
2022-09-22T17:16:51.928Z,102196.91
2022-09-22T17:19:21.205Z,102181.06
2022-09-22T17:21:48.229Z,102187.13
2022-09-22T17:24:14.937Z,102177.06
2022-09-22T17:26:47.707Z,102184.75
2022-09-22T17:29:28.193Z,102198.41
2022-09-22T17:31:59.362Z,102211.19
2022-09-22T17:34:26.385Z,102229.63
2022-09-22T17:36:55.255Z,102227.34
2022-09-22T17:39:22.355Z,102211.50
2022-09-22T17:41:49.918Z,102196.19
2022-09-22T17:44:21.363Z,102159.63
2022-09-22T17:47:07.221Z,102110.41
2022-09-22T17:49:52.279Z,102077.34
2022-09-22T17:52:33.579Z,102047.75
2022-09-22T17:55:07.540Z,102025.09
2022-09-22T17:57:41.078Z,102024.41
2022-09-22T18:00:12.154Z,102022.63
2022-09-22T18:02:41.476Z,102026.66
2022-09-22T18:05:09.263Z,102029.78
2022-09-22T18:07:39.967Z,102036.31
2022-09-22T18:10:16.805Z,102037.78
2022-09-22T18:12:44.123Z,102027.47
2022-09-22T18:15:13.119Z,101986.31
2022-09-22T18:17:41.454Z,101937.28
2022-09-22T18:20:12.397Z,101865.59
2022-09-22T18:22:39.872Z,101805.03
2022-09-22T18:25:08.269Z,101779.50
2022-09-22T18:27:34.798Z,101781.75
2022-09-22T18:30:01.428Z,101822.91
2022-09-22T18:32:28.094Z,101883.25
2022-09-22T18:34:55.195Z,101962.66
2022-09-22T18:37:22.745Z,102036.59
2022-09-22T18:39:50.377Z,102121.75
2022-09-22T18:42:22.689Z,102224.88
2022-09-22T18:44:48.988Z,102313.72
2022-09-22T18:47:17.830Z,102382.59
2022-09-22T18:49:44.978Z,102449.69
2022-09-22T18:52:11.333Z,102507.00
2022-09-22T18:54:39.888Z,102548.31
2022-09-22T18:57:06.896Z,102590.59
2022-09-22T18:59:33.304Z,102617.16
2022-09-22T19:01:59.681Z,102648.59
2022-09-22T19:04:26.974Z,102663.69
2022-09-22T19:07:12.960Z,102694.28
2022-09-22T19:09:39.674Z,102719.38
2022-09-22T19:12:08.010Z,102741.75
2022-09-22T19:14:36.582Z,102763.34
2022-09-22T19:17:03.986Z,102780.19
2022-09-22T19:19:30.534Z,102801.75
2022-09-22T19:21:57.211Z,102821.41
2022-09-22T19:24:24.993Z,102839.31
2022-09-22T19:26:52.353Z,102882.59
2022-09-22T19:29:19.082Z,102895.91
2022-09-22T19:31:45.569Z,102911.13
2022-09-22T19:34:13.027Z,102938.56
2022-09-22T19:36:40.299Z,102958.22
2022-09-22T19:39:08.626Z,102981.25
2022-09-22T19:41:40.586Z,102995.72
2022-09-22T19:44:07.659Z,103023.22
2022-09-22T19:46:34.135Z,103036.63
2022-09-22T19:49:03.044Z,103072.06
2022-09-22T19:51:29.572Z,103101.38
2022-09-22T19:53:56.609Z,103125.28
2022-09-22T19:56:23.073Z,103154.44
2022-09-22T19:58:49.767Z,103197.75
2022-09-22T20:01:27.223Z,103223.34
2022-09-22T20:03:54.283Z,103251.63
2022-09-22T20:06:20.692Z,103297.41
2022-09-22T20:08:47.135Z,103319.53
2022-09-22T20:11:26.105Z,103347.97
2022-09-22T20:14:12.090Z,103379.75
2022-09-22T20:16:38.548Z,103402.72
2022-09-22T20:19:05.186Z,103436.91
2022-09-22T20:21:33.292Z,103457.34
2022-09-22T20:23:59.738Z,103481.19
2022-09-22T20:26:26.325Z,103504.03
2022-09-22T20:28:53.436Z,103519.13
2022-09-22T20:31:20.138Z,103546.50
2022-09-22T20:33:46.629Z,103556.25
2022-09-22T20:36:13.957Z,103597.94
2022-09-22T20:38:40.838Z,103609.41
2022-09-22T20:41:14.167Z,103634.03
2022-09-22T20:43:40.618Z,103648.16
2022-09-22T20:46:09.352Z,103648.25
2022-09-22T20:48:35.817Z,103666.66
2022-09-22T20:51:03.157Z,103683.31
2022-09-22T20:53:31.812Z,103673.69
2022-09-22T20:56:01.350Z,103686.88
2022-09-22T20:58:32.290Z,103687.03
2022-09-22T21:01:04.004Z,103694.06
2022-09-22T21:03:30.476Z,103692.31
2022-09-22T21:06:00.508Z,103687.03
2022-09-22T21:08:45.427Z,103679.22
2022-09-22T21:11:15.941Z,103676.66
2022-09-22T21:13:42.755Z,103678.53
2022-09-22T21:16:09.460Z,103688.22
2022-09-22T21:18:36.606Z,103704.06
2022-09-22T21:21:04.051Z,103699.69
2022-09-22T21:23:31.126Z,103701.50
2022-09-22T21:26:05.850Z,103717.34
2022-09-22T21:28:32.542Z,103724.44
2022-09-22T21:31:00.225Z,103748.97
2022-09-22T21:33:27.610Z,103768.22
2022-09-22T21:36:04.560Z,103770.03
2022-09-22T21:38:31.064Z,103773.47
2022-09-22T21:40:58.377Z,103766.44
2022-09-22T21:43:24.765Z,103757.63
2022-09-22T21:46:01.353Z,103753.84
2022-09-22T21:48:31.347Z,103741.47
2022-09-22T21:50:57.655Z,103731.41
2022-09-22T21:53:24.347Z,103711.91
2022-09-22T21:55:55.789Z,103673.34
2022-09-22T21:58:22.082Z,103652.13
2022-09-22T22:00:51.973Z,103619.66
2022-09-22T22:03:30.399Z,103599.31
2022-09-22T22:06:00.735Z,103595.66
2022-09-22T22:08:27.075Z,103581.47
2022-09-22T22:11:04.526Z,103565.72
2022-09-22T22:13:32.183Z,103539.25
2022-09-22T22:15:58.999Z,103528.59
2022-09-22T22:18:25.346Z,103516.28
2022-09-22T22:21:01.958Z,103503.91
2022-09-22T22:23:30.995Z,103493.00
2022-09-22T22:26:02.563Z,103466.69
2022-09-22T22:28:29.819Z,103455.16
2022-09-22T22:30:56.793Z,103441.03
2022-09-22T22:33:23.531Z,103429.69
2022-09-22T22:35:53.385Z,103411.09
2022-09-22T22:38:20.787Z,103399.66
2022-09-22T22:40:47.255Z,103389.09
2022-09-22T22:43:14.489Z,103371.56
2022-09-22T22:45:47.739Z,103360.16
2022-09-22T22:48:15.208Z,103353.06
2022-09-22T22:50:42.256Z,103345.91
2022-09-22T22:53:10.959Z,103328.41
2022-09-22T22:55:37.722Z,103330.91
2022-09-22T22:58:04.713Z,103326.41
2022-09-22T23:00:32.665Z,103324.66
2022-09-22T23:02:59.665Z,103311.56
2022-09-22T23:05:26.654Z,103294.03
2022-09-22T23:07:53.761Z,103284.22
2022-09-22T23:10:20.655Z,103275.41
2022-09-22T23:12:47.621Z,103261.53
2022-09-22T23:15:14.189Z,103250.81
2022-09-22T23:17:40.502Z,103244.84
2022-09-22T23:20:07.530Z,103233.53
2022-09-22T23:22:33.904Z,103226.56
2022-09-22T23:25:00.235Z,103230.94
2022-09-22T23:27:26.580Z,103231.78
2022-09-22T23:29:52.917Z,103240.47
2022-09-22T23:32:19.224Z,103228.19
2022-09-22T23:34:45.514Z,103233.47
2022-09-22T23:37:11.823Z,103226.44
2022-09-22T23:39:38.127Z,103221.16
2022-09-22T23:42:04.678Z,103223.69
2022-09-22T23:44:30.985Z,103213.16
2022-09-22T23:46:59.129Z,103212.28
2022-09-22T23:49:25.501Z,103201.56
2022-09-22T23:51:51.904Z,103192.09
2022-09-22T23:54:18.224Z,103191.31
2022-09-22T23:56:45.866Z,103183.44
2022-09-22T23:59:12.238Z,103173.78
